Terminal Aerodrome Forecast
Issued by NWS

Home | Current Version | Previous Version | Text Only | Print | Product List | Glossary On
Versions: 1 2 3 4 5 6 7 8 9 10 11 12 13
000
FTUS45 KFGZ 300542
TAFPRC
TAF
KPRC 300542Z 3006/3106 20005KT P6SM BKN100 BKN250
     FM301800 20007KT P6SM SCT070 BKN150
      TEMPO 3019/3023 VRB15G25KT 5SM -TSRA BKN070CB
     FM310300 20005KT P6SM BKN100 BKN250=

USA.gov is the U.S. government's official web portal to all federal, state and local government web resources and services.